createdAt,value
2018-01-25T00:00:19.428Z,5.50
2018-01-25T00:02:48.444Z,5.50
2018-01-25T00:05:17.488Z,5.50
2018-01-25T00:07:46.496Z,5.40
2018-01-25T00:10:16.294Z,5.50
2018-01-25T00:12:46.225Z,5.40
2018-01-25T00:15:16.026Z,5.40
2018-01-25T00:17:45.044Z,5.40
2018-01-25T00:20:14.085Z,5.40
2018-01-25T00:22:46.297Z,5.30
2018-01-25T00:25:16.015Z,5.30
2018-01-25T00:27:45.027Z,5.30
2018-01-25T00:30:14.078Z,5.30
2018-01-25T00:32:47.866Z,5.30
2018-01-25T00:35:22.670Z,5.30
2018-01-25T00:37:55.800Z,5.30
2018-01-25T00:40:29.585Z,5.30
2018-01-25T00:43:00.830Z,5.30
2018-01-25T00:45:29.936Z,5.20
2018-01-25T00:47:58.964Z,5.30
2018-01-25T00:50:28.027Z,5.20
2018-01-25T00:52:58.020Z,5.30
2018-01-25T00:55:27.075Z,5.30
2018-01-25T00:57:56.126Z,5.30
2018-01-25T01:00:25.142Z,5.30
2018-01-25T01:02:54.962Z,5.30
2018-01-25T01:05:24.754Z,5.30
2018-01-25T01:07:53.819Z,5.30
2018-01-25T01:10:22.835Z,5.30
2018-01-25T01:12:51.907Z,5.30
2018-01-25T01:15:20.929Z,5.20
2018-01-25T01:17:49.990Z,5.20
2018-01-25T01:20:19.006Z,5.20
2018-01-25T01:22:48.795Z,5.10
2018-01-25T01:25:17.815Z,5.00
2018-01-25T01:27:46.830Z,5.00
2018-01-25T01:31:38.902Z,5.00
2018-01-25T01:34:07.946Z,5.00
2018-01-25T01:36:36.965Z,4.90
2018-01-25T01:39:06.769Z,4.90
2018-01-25T01:41:36.550Z,4.80
2018-01-25T01:44:05.610Z,4.80
2018-01-25T01:46:34.617Z,4.90
2018-01-25T01:49:03.634Z,4.80
2018-01-25T01:51:32.679Z,4.80
2018-01-25T01:54:01.696Z,4.70
2018-01-25T01:56:30.787Z,4.70
2018-01-25T01:58:59.793Z,4.70
2018-01-25T02:01:28.874Z,4.70
2018-01-25T02:03:57.934Z,4.60
2018-01-25T02:06:27.272Z,4.70
2018-01-25T02:08:58.091Z,4.60
2018-01-25T02:11:27.581Z,4.60
2018-01-25T02:13:57.934Z,4.60
2018-01-25T02:16:27.128Z,4.50
2018-01-25T02:18:56.143Z,4.60
2018-01-25T02:21:32.843Z,4.60
2018-01-25T02:24:01.871Z,4.60
2018-01-25T02:26:31.022Z,4.50
2018-01-25T02:29:00.040Z,4.50
2018-01-25T02:31:29.857Z,4.50
2018-01-25T02:34:00.921Z,4.40
2018-01-25T02:36:29.948Z,4.50
2018-01-25T02:38:59.008Z,4.50
2018-01-25T02:41:28.035Z,4.50
2018-01-25T02:43:57.101Z,4.50
2018-01-25T02:46:26.120Z,4.50
2018-01-25T02:48:55.175Z,4.40
2018-01-25T02:51:24.189Z,4.40
2018-01-25T02:53:53.260Z,4.40
2018-01-25T02:56:22.280Z,4.50
2018-01-25T02:58:51.304Z,4.50
2018-01-25T03:01:20.354Z,4.40
2018-01-25T03:03:51.365Z,4.40
2018-01-25T03:06:21.179Z,4.50
2018-01-25T03:08:50.968Z,4.40
2018-01-25T03:11:20.031Z,4.40
2018-01-25T03:13:49.039Z,4.40
2018-01-25T03:16:18.091Z,4.40
2018-01-25T03:18:47.106Z,4.50
2018-01-25T03:21:16.145Z,4.50
2018-01-25T03:23:45.167Z,4.50
2018-01-25T03:26:14.226Z,4.50
2018-01-25T03:28:43.243Z,4.50
2018-01-25T03:31:13.085Z,4.60
2018-01-25T03:33:43.059Z,4.50
2018-01-25T03:36:12.886Z,4.60
2018-01-25T03:38:42.687Z,4.60
2018-01-25T03:41:12.516Z,4.70
2018-01-25T03:43:41.521Z,4.60
2018-01-25T03:46:10.535Z,4.70
2018-01-25T03:48:39.585Z,4.70
2018-01-25T03:51:09.359Z,4.70
2018-01-25T03:53:38.411Z,4.60
2018-01-25T03:56:07.431Z,4.70
2018-01-25T03:58:36.483Z,4.70
2018-01-25T04:01:06.268Z,4.80
2018-01-25T04:03:35.314Z,4.70
2018-01-25T04:06:04.343Z,4.80
2018-01-25T04:08:33.520Z,4.80
2018-01-25T04:11:02.540Z,4.80
2018-01-25T04:13:31.554Z,4.70
2018-01-25T04:16:01.360Z,4.80
2018-01-25T04:18:31.146Z,4.80
2018-01-25T04:21:00.194Z,4.70
2018-01-25T04:23:32.638Z,4.80
2018-01-25T04:26:04.438Z,4.70
2018-01-25T04:28:33.455Z,4.70
2018-01-25T04:31:02.499Z,4.70
2018-01-25T04:33:32.290Z,4.70
2018-01-25T04:36:01.337Z,4.60
2018-01-25T04:38:30.499Z,4.70
2018-01-25T04:41:00.301Z,4.70
2018-01-25T04:43:30.086Z,4.70
2018-01-25T04:45:59.155Z,4.60
2018-01-25T04:48:28.172Z,4.70
2018-01-25T04:50:57.199Z,4.70
2018-01-25T04:53:27.011Z,4.70
2018-01-25T04:55:56.802Z,4.70
2018-01-25T04:58:25.858Z,4.60
2018-01-25T05:00:54.880Z,4.60
2018-01-25T05:03:23.939Z,4.70
2018-01-25T05:05:52.969Z,4.70
2018-01-25T05:08:22.027Z,4.70
2018-01-25T05:10:51.048Z,4.70
2018-01-25T05:13:20.090Z,4.70
2018-01-25T05:15:49.129Z,4.70
2018-01-25T05:18:18.157Z,4.70
2018-01-25T05:20:47.180Z,4.70
2018-01-25T05:23:16.236Z,4.60
2018-01-25T05:25:45.256Z,4.60
2018-01-25T05:28:15.136Z,4.60
2018-01-25T05:30:44.162Z,4.60
2018-01-25T05:33:13.979Z,4.60
2018-01-25T05:35:43.002Z,4.60
2018-01-25T05:38:12.102Z,4.60
2018-01-25T05:40:41.117Z,4.60
2018-01-25T05:43:10.143Z,4.60
2018-01-25T05:45:39.963Z,4.70
2018-01-25T05:48:09.745Z,4.70
2018-01-25T05:50:38.781Z,4.60
2018-01-25T05:53:07.806Z,4.60
2018-01-25T05:55:36.877Z,4.60
2018-01-25T05:58:05.918Z,4.60
2018-01-25T06:00:34.949Z,4.60
2018-01-25T06:03:03.977Z,4.60
2018-01-25T06:05:35.015Z,4.60
2018-01-25T06:08:04.039Z,4.70
2018-01-25T06:10:33.177Z,4.70
2018-01-25T06:13:02.194Z,4.60
2018-01-25T06:15:31.244Z,4.60
2018-01-25T06:18:01.022Z,4.50
2018-01-25T06:20:30.191Z,4.50
2018-01-25T06:22:59.201Z,4.50
2018-01-25T06:25:41.259Z,4.60
2018-01-25T06:28:12.276Z,4.60
2018-01-25T06:30:42.107Z,4.70
2018-01-25T06:33:11.895Z,4.70
2018-01-25T06:35:40.910Z,4.70
2018-01-25T06:38:10.718Z,4.80
2018-01-25T06:40:40.503Z,4.80
2018-01-25T06:43:09.549Z,4.70
2018-01-25T06:45:38.567Z,4.80
2018-01-25T06:48:07.613Z,4.80
2018-01-25T06:50:37.419Z,4.90
2018-01-25T06:53:07.238Z,4.90
2018-01-25T06:55:37.047Z,4.90
2018-01-25T06:58:06.869Z,4.90
2018-01-25T07:00:35.877Z,4.90
2018-01-25T07:03:05.137Z,4.90
2018-01-25T07:05:34.156Z,4.90
2018-01-25T07:08:03.201Z,5.00
2018-01-25T07:10:32.267Z,5.00
2018-01-25T07:13:01.287Z,4.90
2018-01-25T07:15:32.300Z,4.90
2018-01-25T07:18:01.331Z,4.90
2018-01-25T07:20:30.375Z,4.90
2018-01-25T07:22:59.398Z,4.90
2018-01-25T07:25:35.412Z,4.90
2018-01-25T07:28:05.198Z,5.00
2018-01-25T07:30:34.226Z,4.90
2018-01-25T07:33:03.243Z,5.00
2018-01-25T07:35:32.284Z,5.10
2018-01-25T07:38:01.295Z,5.20
2018-01-25T07:40:31.119Z,5.20
2018-01-25T07:43:00.138Z,5.10
2018-01-25T07:45:31.170Z,5.20
2018-01-25T07:48:00.182Z,5.30
2018-01-25T07:50:29.236Z,5.40
2018-01-25T07:52:59.011Z,5.50
2018-01-25T07:55:28.055Z,5.50
2018-01-25T08:00:59.773Z,5.70
2018-01-25T08:03:28.792Z,5.70
2018-01-25T08:05:58.611Z,5.70
2018-01-25T08:08:28.385Z,5.80
2018-01-25T08:10:57.460Z,5.80
2018-01-25T08:13:32.127Z,5.90
2018-01-25T08:19:11.362Z,6.20
2018-01-25T08:21:40.444Z,6.20
2018-01-25T08:24:09.467Z,6.30
2018-01-25T08:26:38.478Z,6.40
2018-01-25T08:29:08.302Z,6.80
2018-01-25T08:31:37.327Z,6.80
2018-01-25T08:34:06.393Z,7.00
2018-01-25T08:36:50.234Z,7.10
2018-01-25T08:39:19.357Z,7.10
2018-01-25T08:41:49.112Z,7.20
2018-01-25T08:44:18.158Z,7.10
2018-01-25T08:46:47.177Z,7.20
2018-01-25T08:49:16.237Z,7.30
2018-01-25T08:51:49.389Z,7.40
2018-01-25T08:54:19.235Z,7.60
2018-01-25T08:56:48.251Z,7.50
2018-01-25T08:59:17.302Z,7.70
2018-01-25T09:01:46.323Z,7.80
2018-01-25T09:04:15.383Z,7.90
2018-01-25T09:06:55.191Z,8.10
2018-01-25T09:09:24.262Z,8.10
2018-01-25T09:11:53.283Z,8.30
2018-01-25T09:14:22.301Z,8.40
2018-01-25T09:16:52.126Z,8.50
2018-01-25T09:19:21.914Z,8.60
2018-01-25T09:21:51.734Z,8.70
2018-01-25T09:24:21.532Z,8.80
2018-01-25T09:26:50.591Z,8.70
2018-01-25T09:29:19.625Z,8.80
2018-01-25T09:31:48.679Z,8.90
2018-01-25T09:34:17.714Z,9.00
2018-01-25T09:36:46.766Z,9.20
2018-01-25T09:39:15.786Z,9.30
2018-01-25T09:41:51.561Z,9.40
2018-01-25T09:44:21.350Z,9.60
2018-01-25T09:46:50.420Z,9.60
2018-01-25T09:49:19.453Z,9.70
2018-01-25T09:51:48.470Z,9.80
2018-01-25T09:54:18.514Z,9.90
2018-01-25T09:56:47.554Z,9.90
2018-01-25T09:59:17.399Z,10.00
2018-01-25T10:01:46.434Z,10.00
2018-01-25T10:04:15.507Z,10.10
2018-01-25T10:06:44.557Z,10.00
2018-01-25T10:09:13.619Z,10.00
2018-01-25T10:11:42.643Z,9.80
2018-01-25T10:14:11.698Z,9.80
2018-01-25T10:16:40.719Z,9.80
2018-01-25T10:19:09.799Z,9.90
2018-01-25T10:21:38.827Z,10.00
2018-01-25T10:24:08.619Z,10.10
2018-01-25T10:26:37.691Z,10.00
2018-01-25T10:29:06.722Z,10.20
2018-01-25T10:31:36.576Z,10.20
2018-01-25T10:34:05.598Z,10.10
2018-01-25T10:36:34.671Z,10.20
2018-01-25T10:39:03.713Z,10.20
2018-01-25T10:41:33.598Z,10.70
2018-01-25T10:44:02.596Z,10.60
2018-01-25T10:46:31.673Z,11.10
2018-01-25T10:49:00.693Z,11.60
2018-01-25T10:51:29.782Z,12.30
2018-01-25T10:53:58.820Z,12.80
2018-01-25T10:56:27.863Z,13.10
2018-01-25T10:58:56.939Z,13.30
2018-01-25T11:01:31.549Z,13.40
2018-01-25T11:04:00.611Z,13.60
2018-01-25T11:06:30.412Z,14.10
2018-01-25T11:08:59.474Z,14.00
2018-01-25T11:11:28.505Z,14.40
2018-01-25T11:13:58.343Z,14.90
2018-01-25T11:16:27.383Z,14.80
2018-01-25T11:18:56.446Z,15.10
2018-01-25T11:21:25.470Z,15.10
2018-01-25T11:23:54.549Z,15.30
2018-01-25T11:26:23.583Z,15.50
2018-01-25T11:28:58.064Z,15.90
2018-01-25T11:31:27.090Z,16.10
2018-01-25T11:33:56.179Z,16.20
2018-01-25T11:36:25.212Z,16.40
2018-01-25T11:38:54.240Z,16.60
2018-01-25T11:41:23.308Z,16.90
2018-01-25T11:43:52.331Z,17.20
2018-01-25T11:46:32.035Z,17.30
2018-01-25T11:49:01.069Z,17.50
2018-01-25T11:51:30.117Z,17.70
2018-01-25T11:53:59.919Z,18.10
2018-01-25T11:56:29.751Z,18.40
2018-01-25T11:58:58.778Z,18.30
2018-01-25T12:01:27.838Z,18.50
2018-01-25T12:03:56.862Z,18.40
2018-01-25T12:06:25.916Z,18.20
2018-01-25T12:08:55.705Z,17.40
2018-01-25T12:11:24.774Z,17.30
2018-01-25T12:13:55.768Z,17.10
2018-01-25T12:16:24.826Z,17.00
2018-01-25T12:18:53.882Z,16.90
2018-01-25T12:21:22.915Z,16.90
2018-01-25T12:23:51.983Z,17.00
2018-01-25T12:26:21.006Z,17.20
2018-01-25T12:28:50.070Z,17.20
2018-01-25T12:31:19.098Z,17.10
2018-01-25T12:33:48.168Z,16.90
2018-01-25T12:36:17.199Z,16.60
2018-01-25T12:38:47.018Z,16.10
2018-01-25T12:41:16.868Z,15.90
2018-01-25T12:43:45.931Z,15.80
2018-01-25T12:46:15.841Z,15.50
2018-01-25T12:48:45.683Z,15.40
2018-01-25T12:51:14.715Z,15.30
2018-01-25T12:53:43.735Z,15.30
2018-01-25T12:56:13.564Z,15.10
2018-01-25T12:58:42.585Z,15.00
2018-01-25T13:01:11.657Z,15.10
2018-01-25T13:03:40.681Z,15.00
2018-01-25T13:06:09.736Z,14.90
2018-01-25T13:08:38.765Z,14.80
2018-01-25T13:11:07.839Z,14.80
2018-01-25T13:13:36.880Z,14.80
2018-01-25T13:16:05.942Z,14.80
2018-01-25T13:18:34.982Z,14.80
2018-01-25T13:21:04.056Z,14.80
2018-01-25T13:23:33.093Z,14.80
2018-01-25T13:26:02.142Z,14.80
2018-01-25T13:28:31.208Z,14.70
2018-01-25T13:31:00.244Z,14.70
2018-01-25T13:33:34.744Z,14.80
2018-01-25T13:36:03.812Z,14.70
2018-01-25T13:38:32.892Z,14.60
2018-01-25T13:41:01.927Z,14.40
2018-01-25T13:43:30.986Z,14.30
2018-01-25T13:46:00.021Z,14.10
2018-01-25T13:48:29.093Z,13.90
2018-01-25T13:50:58.130Z,13.70
2018-01-25T13:53:27.207Z,13.50
2018-01-25T13:55:56.243Z,13.30
2018-01-25T13:58:25.310Z,13.10
2018-01-25T14:00:54.343Z,12.90
2018-01-25T14:03:23.423Z,12.70
2018-01-25T14:05:52.451Z,12.50
2018-01-25T14:08:21.480Z,12.50
2018-01-25T14:10:50.601Z,12.40
2018-01-25T14:13:19.597Z,12.40
2018-01-25T14:15:48.680Z,12.40
2018-01-25T14:18:18.475Z,12.30
2018-01-25T14:20:47.538Z,12.30
2018-01-25T14:23:16.580Z,12.40
2018-01-25T14:25:46.416Z,12.60
2018-01-25T14:28:15.498Z,12.60
2018-01-25T14:30:44.555Z,12.70
2018-01-25T14:33:13.598Z,12.80
2018-01-25T14:35:42.636Z,12.80
2018-01-25T14:38:11.708Z,12.80
2018-01-25T14:40:40.748Z,12.80
2018-01-25T14:43:10.589Z,12.90
2018-01-25T14:45:39.618Z,12.80
2018-01-25T14:48:08.703Z,12.80
2018-01-25T14:50:37.732Z,12.80
2018-01-25T14:53:07.736Z,12.80
2018-01-25T14:55:36.772Z,12.70
2018-01-25T14:58:06.574Z,12.60
2018-01-25T15:00:35.642Z,12.50
2018-01-25T15:03:04.671Z,12.40
2018-01-25T15:05:33.749Z,12.40
2018-01-25T15:08:03.543Z,12.20
2018-01-25T15:10:32.610Z,12.20
2018-01-25T15:13:01.660Z,12.00
2018-01-25T15:15:31.491Z,11.60
2018-01-25T15:18:00.516Z,11.50
2018-01-25T15:20:29.662Z,11.30
2018-01-25T15:22:58.703Z,11.10
2018-01-25T15:25:33.334Z,11.00
2018-01-25T15:28:03.309Z,10.80
2018-01-25T15:30:32.376Z,10.60
2018-01-25T15:33:01.401Z,10.40
2018-01-25T15:35:30.429Z,10.20
2018-01-25T15:37:59.474Z,10.10
2018-01-25T15:40:29.253Z,9.80
2018-01-25T15:42:58.307Z,9.70
2018-01-25T15:45:27.324Z,9.70
2018-01-25T15:47:56.379Z,9.60
2018-01-25T15:50:25.407Z,9.60
2018-01-25T15:52:54.460Z,9.50
2018-01-25T15:55:23.494Z,9.50
2018-01-25T15:57:52.549Z,9.40
2018-01-25T16:00:21.552Z,9.30
2018-01-25T16:02:50.612Z,9.10
2018-01-25T16:05:19.643Z,9.10
2018-01-25T16:07:48.724Z,9.00
2018-01-25T16:10:17.747Z,9.00
2018-01-25T16:12:46.778Z,8.90
2018-01-25T16:15:15.850Z,8.90
2018-01-25T16:17:44.887Z,8.80
2018-01-25T16:20:14.710Z,8.80
2018-01-25T16:22:43.773Z,8.70
2018-01-25T16:25:12.887Z,8.60
2018-01-25T16:27:42.691Z,8.50
2018-01-25T16:30:12.527Z,8.50
2018-01-25T16:32:41.555Z,8.40
2018-01-25T16:35:10.656Z,8.40
2018-01-25T16:37:39.688Z,8.40
2018-01-25T16:40:08.715Z,8.30
2018-01-25T16:42:37.962Z,8.20
2018-01-25T16:45:06.987Z,8.10
2018-01-25T16:47:36.847Z,8.00
2018-01-25T16:50:05.906Z,7.90
2018-01-25T16:52:35.731Z,7.80
2018-01-25T16:55:08.478Z,7.80
2018-01-25T16:57:37.528Z,7.70
2018-01-25T17:00:06.562Z,7.70
2018-01-25T17:02:35.735Z,7.60
2018-01-25T17:05:05.734Z,7.60
2018-01-25T17:07:35.790Z,7.60
2018-01-25T17:10:07.031Z,7.40
2018-01-25T17:12:37.055Z,7.30
2018-01-25T17:15:07.140Z,7.30
2018-01-25T17:17:36.174Z,7.20
2018-01-25T17:20:05.327Z,7.30
2018-01-25T17:22:35.666Z,7.30
2018-01-25T17:25:05.622Z,7.20
2018-01-25T17:27:34.970Z,7.20
2018-01-25T17:30:04.801Z,7.10
2018-01-25T17:32:33.837Z,7.10
2018-01-25T17:35:02.915Z,7.20
2018-01-25T17:37:32.532Z,7.20
2018-01-25T17:40:02.195Z,7.20
2018-01-25T17:42:32.103Z,7.10
2018-01-25T17:45:03.275Z,7.10
2018-01-25T17:47:32.357Z,7.10
2018-01-25T17:50:02.173Z,7.10
2018-01-25T17:52:32.274Z,7.10
2018-01-25T17:55:01.618Z,7.10
2018-01-25T17:57:30.755Z,7.10
2018-01-25T17:59:59.811Z,7.20
2018-01-25T18:02:29.113Z,7.20
2018-01-25T18:04:58.151Z,7.10
2018-01-25T18:07:27.255Z,7.10
2018-01-25T18:09:57.235Z,7.20
2018-01-25T18:12:26.564Z,7.10
2018-01-25T18:14:55.569Z,7.10
2018-01-25T18:17:25.013Z,7.10
2018-01-25T18:19:54.232Z,7.10
2018-01-25T18:22:23.275Z,7.20
2018-01-25T18:24:52.292Z,7.10
2018-01-25T18:27:21.519Z,7.10
2018-01-25T18:29:51.535Z,7.10
2018-01-25T18:32:20.581Z,7.10
2018-01-25T18:34:49.625Z,7.10
2018-01-25T18:37:18.898Z,7.10
2018-01-25T18:39:48.724Z,7.10
2018-01-25T18:42:18.557Z,7.10
2018-01-25T18:44:47.583Z,7.10
2018-01-25T18:47:16.640Z,7.10
2018-01-25T18:49:45.811Z,7.00
2018-01-25T18:52:15.452Z,7.00
2018-01-25T18:54:44.859Z,7.00
2018-01-25T18:57:14.015Z,6.90
2018-01-25T18:59:44.181Z,6.90
2018-01-25T19:02:13.783Z,6.90
2018-01-25T19:04:43.503Z,6.90
2018-01-25T19:07:13.796Z,7.00
2018-01-25T19:09:44.032Z,6.90
2018-01-25T19:12:14.242Z,6.80
2018-01-25T19:14:43.619Z,6.80
2018-01-25T19:17:13.063Z,6.80
2018-01-25T19:19:42.452Z,6.80
2018-01-25T19:22:11.691Z,6.90
2018-01-25T19:24:41.992Z,6.90
2018-01-25T19:27:11.270Z,6.90
2018-01-25T19:29:41.492Z,7.00
2018-01-25T19:32:11.012Z,6.90
2018-01-25T19:34:56.690Z,6.90
2018-01-25T19:37:26.145Z,6.90
2018-01-25T19:39:55.291Z,6.90
2018-01-25T19:42:24.920Z,6.90
2018-01-25T19:44:54.119Z,6.80
2018-01-25T19:47:24.364Z,6.80
2018-01-25T19:49:54.469Z,6.90
2018-01-25T19:52:27.753Z,6.80
2018-01-25T19:54:57.107Z,6.90
2018-01-25T19:57:27.037Z,6.90
2018-01-25T19:59:57.140Z,6.70
2018-01-25T20:02:26.319Z,6.70
2018-01-25T20:04:55.701Z,6.80
2018-01-25T20:07:30.687Z,6.70
2018-01-25T20:10:00.204Z,6.80
2018-01-25T20:12:29.691Z,6.70
2018-01-25T20:15:00.223Z,6.70
2018-01-25T20:17:29.503Z,6.80
2018-01-25T20:20:03.645Z,6.80
2018-01-25T20:22:33.328Z,6.80
2018-01-25T20:25:03.751Z,6.80
2018-01-25T20:27:33.355Z,6.80
2018-01-25T20:30:02.697Z,6.80
2018-01-25T20:32:31.755Z,6.80
2018-01-25T20:35:00.861Z,6.80
2018-01-25T20:37:29.924Z,6.80
2018-01-25T20:39:59.782Z,6.80
2018-01-25T20:42:29.066Z,6.90
2018-01-25T20:44:59.101Z,6.90
2018-01-25T20:47:28.219Z,6.80
2018-01-25T20:49:57.312Z,6.90
2018-01-25T20:52:26.586Z,6.90
2018-01-25T20:54:55.604Z,6.90
2018-01-25T20:57:25.706Z,6.90
2018-01-25T20:59:55.225Z,6.80
2018-01-25T21:02:25.416Z,6.80
2018-01-25T21:04:54.841Z,6.90
2018-01-25T21:07:24.828Z,6.80
2018-01-25T21:09:53.900Z,6.70
2018-01-25T21:12:22.917Z,6.80
2018-01-25T21:14:51.984Z,6.80
2018-01-25T21:17:21.048Z,6.80
2018-01-25T21:19:50.102Z,6.80
2018-01-25T21:22:19.159Z,6.80
2018-01-25T21:24:48.248Z,6.90
2018-01-25T21:27:17.266Z,6.90
2018-01-25T21:29:46.321Z,6.80
2018-01-25T21:32:16.143Z,6.90
2018-01-25T21:34:45.175Z,6.80
2018-01-25T21:37:14.232Z,6.80
2018-01-25T21:39:44.285Z,6.80
2018-01-25T21:42:13.476Z,6.80
2018-01-25T21:44:42.494Z,6.90
2018-01-25T21:47:11.560Z,6.80
2018-01-25T21:49:40.598Z,6.80
2018-01-25T21:52:09.678Z,6.80
2018-01-25T21:54:38.766Z,6.80
2018-01-25T21:57:07.786Z,6.80
2018-01-25T21:59:36.840Z,6.80
2018-01-25T22:02:05.863Z,6.80
2018-01-25T22:04:34.913Z,6.80
2018-01-25T22:07:03.935Z,6.70
2018-01-25T22:09:32.996Z,6.60
2018-01-25T22:12:02.024Z,6.70
2018-01-25T22:14:31.074Z,6.70
2018-01-25T22:17:00.107Z,6.70
2018-01-25T22:19:29.175Z,6.80
2018-01-25T22:21:58.199Z,6.80
2018-01-25T22:24:28.194Z,6.80
2018-01-25T22:26:57.221Z,6.70
2018-01-25T22:29:26.276Z,6.80
2018-01-25T22:31:55.295Z,6.80
2018-01-25T22:34:24.382Z,6.80
2018-01-25T22:36:53.416Z,6.80
2018-01-25T22:39:22.448Z,6.80
2018-01-25T22:41:51.617Z,6.80
2018-01-25T22:44:21.181Z,6.80
2018-01-25T22:46:50.497Z,6.90
2018-01-25T22:49:19.913Z,6.90
2018-01-25T22:51:49.114Z,6.80
2018-01-25T22:54:19.504Z,6.80
2018-01-25T22:56:48.518Z,6.80
2018-01-25T22:59:17.583Z,6.80
2018-01-25T23:01:47.694Z,6.80
2018-01-25T23:04:16.747Z,6.80
2018-01-25T23:06:55.532Z,6.70
2018-01-25T23:09:24.602Z,6.70
2018-01-25T23:11:54.662Z,6.70
2018-01-25T23:14:23.720Z,6.60
2018-01-25T23:16:52.735Z,6.60
2018-01-25T23:19:21.779Z,6.70
2018-01-25T23:21:56.586Z,6.70
2018-01-25T23:24:26.411Z,6.70
2018-01-25T23:26:58.158Z,6.70
2018-01-25T23:29:27.981Z,6.70
2018-01-25T23:31:59.738Z,6.70
2018-01-25T23:34:29.563Z,6.70
2018-01-25T23:36:58.590Z,6.60
2018-01-25T23:39:27.662Z,6.70
2018-01-25T23:41:56.686Z,6.70
2018-01-25T23:44:26.180Z,6.80
2018-01-25T23:46:55.320Z,6.70
2018-01-25T23:49:25.116Z,6.70
2018-01-25T23:51:54.163Z,6.60
2018-01-25T23:54:23.187Z,6.70
2018-01-25T23:56:57.774Z,6.70
2018-01-25T23:59:26.789Z,6.70
